Time;durP1;ratioP1;P1;durP2;ratioP2;P2;SDS_P1;SDS_P2;PMS_P1;PMS_P2;Temp;Humidity;BMP_temperature;BMP_pressure;BME280_temperature;BME280_humidity;BME280_pressure;Samples;Min_cycle;Max_cycle;Signal;HPM_P1;HPM_P2
2022/10/01 00:01:19;;;;;;;;;;;11.20;99.90;;;;;;5030865;28;20011;-82
2022/10/01 00:03:46;;;;;;;;;;;11.20;99.90;;;;;;5030604;28;19985;-77
2022/10/01 00:06:19;;;;;;;;;;;11.20;99.90;;;;;;5031770;28;19963;-80
2022/10/01 00:08:47;;;;;;;;;;;11.10;99.90;;;;;;5047837;28;20041;-80
2022/10/01 00:11:14;;;;;;;;;;;11.10;99.90;;;;;;5013469;28;20051;-80
2022/10/01 00:13:45;;;;;;;;;;;11.10;99.90;;;;;;5030403;28;19924;-81
2022/10/01 00:16:12;;;;;;;;;;;11.10;99.90;;;;;;5047448;28;19932;-82
2022/10/01 00:18:39;;;;;;;;;;;11.10;99.90;;;;;;5032120;28;20003;-80
2022/10/01 00:21:08;;;;;;;;;;;11.00;99.90;;;;;;5018927;28;19936;-81
2022/10/01 00:23:34;;;;;;;;;;;11.00;99.90;;;;;;5044172;28;20548;-81
2022/10/01 00:26:19;;;;;;;;;;;11.00;99.90;;;;;;5046754;28;19993;-80
2022/10/01 00:28:46;;;;;;;;;;;11.00;99.90;;;;;;5047323;28;20513;-79
2022/10/01 00:31:13;;;;;;;;;;;11.00;99.90;;;;;;5031103;28;20457;-81
2022/10/01 00:33:39;;;;;;;;;;;11.00;99.90;;;;;;5045923;28;19924;-81
2022/10/01 00:36:05;;;;;;;;;;;10.70;99.90;;;;;;5047510;28;19928;-80
2022/10/01 00:38:31;;;;;;;;;;;10.90;99.90;;;;;;5030306;28;19928;-79
2022/10/01 00:40:57;;;;;;;;;;;10.90;99.90;;;;;;5028580;28;19935;-84
2022/10/01 00:43:25;;;;;;;;;;;10.60;99.90;;;;;;5028815;28;20033;-80
2022/10/01 00:45:54;;;;;;;;;;;10.90;99.90;;;;;;5030509;28;19978;-80
2022/10/01 00:48:21;;;;;;;;;;;10.90;99.90;;;;;;5028061;28;19965;-82
2022/10/01 00:50:48;;;;;;;;;;;10.90;99.90;;;;;;5048131;28;19928;-81
2022/10/01 00:53:15;;;;;;;;;;;10.90;99.90;;;;;;5047291;28;19982;-83
2022/10/01 00:55:44;;;;;;;;;;;10.90;99.90;;;;;;5028587;28;20008;-83
2022/10/01 00:58:11;;;;;;;;;;;10.90;99.90;;;;;;5029032;28;20421;-77
2022/10/01 01:00:38;;;;;;;;;;;10.90;99.90;;;;;;5047464;28;19928;-80
2022/10/01 01:03:04;;;;;;;;;;;11.50;99.90;;;;;;5031846;28;19925;-81
2022/10/01 01:05:31;;;;;;;;;;;10.90;99.90;;;;;;5052073;28;19937;-81
2022/10/01 01:08:00;;;;;;;;;;;10.90;99.90;;;;;;5045483;28;19924;-81
2022/10/01 01:10:31;;;;;;;;;;;10.90;99.90;;;;;;5037909;28;20269;-79
2022/10/01 01:12:57;;;;;;;;;;;10.80;99.90;;;;;;5046645;28;19928;-80
2022/10/01 01:15:34;;;;;;;;;;;10.80;99.90;;;;;;5047596;28;19929;-81
2022/10/01 01:18:04;;;;;;;;;;;10.80;99.90;;;;;;5029848;28;19924;-82
2022/10/01 01:20:30;;;;;;;;;;;10.80;99.90;;;;;;5027337;28;20008;-80
2022/10/01 01:23:17;;;;;;;;;;;10.80;99.90;;;;;;5025143;28;20418;-81
2022/10/01 01:25:55;;;;;;;;;;;10.80;99.90;;;;;;5013362;28;19974;-80
2022/10/01 01:28:32;;;;;;;;;;;10.80;99.90;;;;;;5045581;28;19950;-79
2022/10/01 01:31:09;;;;;;;;;;;10.80;99.90;;;;;;5028873;28;19931;-81
2022/10/01 01:33:37;;;;;;;;;;;10.80;99.90;;;;;;5045775;28;19924;-80
2022/10/01 01:36:08;;;;;;;;;;;10.80;99.90;;;;;;5021114;28;20368;-80
2022/10/01 01:38:38;;;;;;;;;;;10.70;99.90;;;;;;5046200;28;19928;-79
2022/10/01 01:41:04;;;;;;;;;;;10.70;99.90;;;;;;5041922;28;19928;-82
2022/10/01 01:43:32;;;;;;;;;;;10.70;99.90;;;;;;5031900;28;20295;-79
2022/10/01 01:46:00;;;;;;;;;;;10.70;99.90;;;;;;5046615;28;19925;-80
2022/10/01 01:48:27;;;;;;;;;;;10.70;99.90;;;;;;5029740;28;19974;-79
2022/10/01 01:50:59;;;;;;;;;;;10.70;99.90;;;;;;5029348;28;19925;-80
2022/10/01 01:53:29;;;;;;;;;;;10.70;99.90;;;;;;5043644;28;19936;-81
2022/10/01 01:55:56;;;;;;;;;;;10.70;99.90;;;;;;5039397;28;19925;-82
2022/10/01 01:58:24;;;;;;;;;;;;;;;;;;5033401;28;19929;-82
2022/10/01 02:00:54;;;;;;;;;;;10.80;99.90;;;;;;5040164;28;19931;-80
2022/10/01 02:03:23;;;;;;;;;;;;;;;;;;5027526;28;19928;-82
2022/10/01 02:14:58;;;;;;;;;;;10.90;99.90;;;;;;5024421;28;20386;-84
2022/10/01 02:17:37;;;;;;;;;;;10.80;99.90;;;;;;5008764;28;20024;-88
2022/10/01 02:20:09;;;;;;;;;;;11.00;99.90;;;;;;4989715;28;20490;-87
2022/10/01 02:23:11;;;;;;;;;;;11.10;99.90;;;;;;4999770;28;19936;-85
2022/10/01 02:25:43;;;;;;;;;;;10.90;99.90;;;;;;4979600;28;19929;-85
2022/10/01 02:34:55;;;;;;;;;;;11.20;99.90;;;;;;5025889;28;19920;-83
2022/10/01 02:40:14;;;;;;;;;;;11.00;99.90;;;;;;5007527;28;19971;-86
2022/10/01 02:46:52;;;;;;;;;;;10.60;99.90;;;;;;5022134;28;19924;-83
2022/10/01 02:50:01;;;;;;;;;;;10.60;99.90;;;;;;4987302;28;19959;-82
2022/10/01 02:55:51;;;;;;;;;;;10.60;99.90;;;;;;5006117;28;19983;-84
2022/10/01 03:01:32;;;;;;;;;;;10.60;99.90;;;;;;5356614;22;19929;-87
2022/10/01 03:04:02;;;;;;;;;;;10.20;99.90;;;;;;5036131;22;20339;-84
2022/10/01 03:06:34;;;;;;;;;;;;;;;;;;5007741;28;19944;-82
2022/10/01 03:09:01;;;;;;;;;;;10.70;99.90;;;;;;5018206;28;20380;-82
2022/10/01 03:11:27;;;;;;;;;;;10.70;99.90;;;;;;5014236;28;19929;-86
2022/10/01 03:14:06;;;;;;;;;;;10.70;99.90;;;;;;5003500;28;19925;-83
2022/10/01 03:16:36;;;;;;;;;;;10.70;99.90;;;;;;5014005;28;19934;-84
2022/10/01 03:19:25;;;;;;;;;;;10.60;99.90;;;;;;5029180;28;19929;-82
2022/10/01 03:21:55;;;;;;;;;;;10.70;99.90;;;;;;5023661;28;19933;-83
2022/10/01 03:24:21;;;;;;;;;;;10.70;99.90;;;;;;4994175;28;20342;-83
2022/10/01 03:26:50;;;;;;;;;;;10.70;99.90;;;;;;5027521;28;20012;-84
2022/10/01 03:29:18;;;;;;;;;;;10.70;99.90;;;;;;5028325;28;20063;-83
2022/10/01 03:31:45;;;;;;;;;;;10.70;99.90;;;;;;5012562;28;20282;-84
2022/10/01 03:34:13;;;;;;;;;;;10.80;99.90;;;;;;5007537;28;20558;-82
2022/10/01 03:36:39;;;;;;;;;;;10.80;99.90;;;;;;5029282;28;19925;-84
2022/10/01 03:39:14;;;;;;;;;;;10.80;99.90;;;;;;5022511;28;20014;-84
2022/10/01 03:41:51;;;;;;;;;;;10.80;99.90;;;;;;5027789;28;20451;-80
2022/10/01 03:44:54;;;;;;;;;;;10.80;99.90;;;;;;5019404;28;19932;-81
2022/10/01 03:47:36;;;;;;;;;;;10.80;99.90;;;;;;5003637;28;19925;-82
2022/10/01 03:53:33;;;;;;;;;;;10.80;99.90;;;;;;5045147;28;20809;-80
2022/10/01 03:55:59;;;;;;;;;;;10.90;99.90;;;;;;5033681;28;19964;-83
2022/10/01 03:58:28;;;;;;;;;;;10.90;99.90;;;;;;5043712;28;19925;-85
2022/10/01 04:00:56;;;;;;;;;;;11.00;99.90;;;;;;5001945;23;19929;-85
2022/10/01 04:04:00;;;;;;;;;;;11.00;99.90;;;;;;4949308;28;20000;-80
2022/10/01 04:09:49;;;;;;;;;;;10.50;99.90;;;;;;5002749;28;19988;-82
2022/10/01 04:13:21;;;;;;;;;;;11.00;99.90;;;;;;4985146;28;19925;-83
2022/10/01 04:20:00;;;;;;;;;;;;;;;;;;;;;
2022/10/01 04:30:02;;;;;;;;;;;10.40;99.90;;;;;;5028288;28;20371;-80
2022/10/01 04:32:28;;;;;;;;;;;11.00;99.90;;;;;;5020696;28;19940;-82
2022/10/01 04:35:06;;;;;;;;;;;11.00;99.90;;;;;;5012222;28;20059;-86
2022/10/01 04:37:32;;;;;;;;;;;11.00;99.90;;;;;;5000378;28;19926;-85
2022/10/01 04:40:02;;;;;;;;;;;11.00;99.90;;;;;;4994378;28;20238;-85
2022/10/01 04:42:27;;;;;;;;;;;11.10;99.90;;;;;;4994570;28;20563;-82
2022/10/01 04:44:56;;;;;;;;;;;11.00;99.90;;;;;;5023154;28;20001;-82
2022/10/01 04:47:31;;;;;;;;;;;11.00;99.90;;;;;;5010369;28;19940;-86
2022/10/01 04:49:59;;;;;;;;;;;11.10;99.90;;;;;;4994676;28;19975;-81
2022/10/01 04:52:25;;;;;;;;;;;11.10;99.90;;;;;;4992193;28;20008;-79
2022/10/01 04:54:51;;;;;;;;;;;11.10;99.90;;;;;;5005808;28;19925;-80
2022/10/01 04:57:30;;;;;;;;;;;11.10;99.90;;;;;;5022042;28;19932;-80
2022/10/01 05:00:04;;;;;;;;;;;11.10;99.90;;;;;;4989375;28;19979;-81
2022/10/01 05:02:31;;;;;;;;;;;11.10;99.90;;;;;;5007175;28;19984;-81
2022/10/01 05:05:09;;;;;;;;;;;11.10;99.90;;;;;;5017705;28;19925;-88
2022/10/01 05:08:01;;;;;;;;;;;11.10;99.90;;;;;;4992693;28;19933;-80
2022/10/01 05:10:52;;;;;;;;;;;11.10;99.90;;;;;;4990234;28;19929;-83
2022/10/01 05:16:46;;;;;;;;;;;11.20;99.90;;;;;;4967871;28;19990;-84
2022/10/01 05:19:15;;;;;;;;;;;11.60;99.90;;;;;;4955122;28;19930;-78
2022/10/01 05:21:45;;;;;;;;;;;11.20;99.90;;;;;;5004722;28;20288;-81
2022/10/01 05:24:22;;;;;;;;;;;11.20;99.90;;;;;;4990687;28;20000;-82
2022/10/01 05:26:48;;;;;;;;;;;11.20;99.90;;;;;;5010264;28;19926;-86
2022/10/01 05:29:14;;;;;;;;;;;11.30;99.90;;;;;;5020156;28;19933;-83
2022/10/01 05:34:59;;;;;;;;;;;11.30;99.90;;;;;;5021766;28;19935;-84
2022/10/01 05:40:28;;;;;;;;;;;;;;;;;;5019567;28;19982;-85
2022/10/01 05:43:06;;;;;;;;;;;;;;;;;;4987581;28;19955;-82
2022/10/01 05:45:42;;;;;;;;;;;;;;;;;;;;;
2022/10/01 05:57:37;;;;;;;;;;;11.90;99.90;;;;;;5004834;28;20379;-82
2022/10/01 06:00:37;;;;;;;;;;;11.40;99.90;;;;;;4991704;28;19932;-80
2022/10/01 06:03:11;;;;;;;;;;;11.40;99.90;;;;;;4992920;28;19929;-82
2022/10/01 06:06:17;;;;;;;;;;;11.50;99.90;;;;;;5003932;28;20008;-81
2022/10/01 06:09:17;;;;;;;;;;;11.90;99.90;;;;;;5021259;28;19932;-81
2022/10/01 06:11:45;;;;;;;;;;;;;;;;;;5019051;28;19983;-84
2022/10/01 06:14:14;;;;;;;;;;;11.50;99.90;;;;;;5006026;28;20391;-81
2022/10/01 06:16:40;;;;;;;;;;;11.50;99.90;;;;;;5008271;28;19932;-84
2022/10/01 06:19:09;;;;;;;;;;;11.50;99.90;;;;;;4994068;28;19925;-85
2022/10/01 06:21:39;;;;;;;;;;;11.50;99.90;;;;;;5007466;28;20351;-81
2022/10/01 06:24:05;;;;;;;;;;;11.60;99.90;;;;;;4992316;28;20363;-81
2022/10/01 06:26:31;;;;;;;;;;;11.60;99.90;;;;;;5027032;28;19972;-85
2022/10/01 06:28:57;;;;;;;;;;;11.60;99.90;;;;;;5006384;28;19985;-80
2022/10/01 06:31:25;;;;;;;;;;;11.70;99.90;;;;;;5005023;28;19929;-80
2022/10/01 06:33:50;;;;;;;;;;;11.70;99.90;;;;;;5036713;28;19951;-84
2022/10/01 06:36:20;;;;;;;;;;;11.80;99.90;;;;;;5019148;28;20490;-83
2022/10/01 06:38:56;;;;;;;;;;;11.80;99.90;;;;;;4992747;28;19974;-81
2022/10/01 06:41:26;;;;;;;;;;;11.80;99.90;;;;;;5049454;28;19925;-82
2022/10/01 06:43:53;;;;;;;;;;;11.80;99.90;;;;;;5039663;28;20578;-81
2022/10/01 06:46:18;;;;;;;;;;;11.90;99.90;;;;;;5027376;28;19932;-86
2022/10/01 06:48:44;;;;;;;;;;;11.80;99.90;;;;;;5013852;28;19920;-84
2022/10/01 06:51:10;;;;;;;;;;;11.80;99.90;;;;;;5020093;28;19925;-81
2022/10/01 06:53:36;;;;;;;;;;;11.90;99.90;;;;;;5011812;28;19924;-82
2022/10/01 06:56:03;;;;;;;;;;;11.40;99.90;;;;;;5025418;28;19928;-80
2022/10/01 06:58:30;;;;;;;;;;;11.90;99.90;;;;;;5040411;28;20332;-84
2022/10/01 07:00:57;;;;;;;;;;;12.00;99.90;;;;;;5027259;28;20016;-82
2022/10/01 07:03:23;;;;;;;;;;;12.10;99.90;;;;;;4996376;28;19933;-80
2022/10/01 07:05:52;;;;;;;;;;;12.20;99.90;;;;;;5056719;28;19959;-80
2022/10/01 07:08:26;;;;;;;;;;;11.80;99.90;;;;;;5015951;28;19946;-83
2022/10/01 07:10:51;;;;;;;;;;;12.50;99.90;;;;;;5041545;28;20066;-81
2022/10/01 07:13:22;;;;;;;;;;;12.60;99.90;;;;;;5011225;28;19929;-84
2022/10/01 07:15:48;;;;;;;;;;;12.70;99.90;;;;;;5015623;28;19960;-84
2022/10/01 07:18:14;;;;;;;;;;;12.90;99.90;;;;;;5007301;28;19925;-81
2022/10/01 07:20:40;;;;;;;;;;;13.10;99.90;;;;;;5022308;28;19979;-79
2022/10/01 07:23:09;;;;;;;;;;;13.20;99.90;;;;;;5025057;28;19924;-81
2022/10/01 07:25:37;;;;;;;;;;;13.40;99.90;;;;;;5017800;28;20485;-79
2022/10/01 07:28:06;;;;;;;;;;;13.50;99.90;;;;;;5041721;28;20673;-80
2022/10/01 07:30:33;;;;;;;;;;;13.60;99.90;;;;;;5004868;28;19925;-83
2022/10/01 07:43:58;;;;;;;;;;;13.50;99.90;;;;;;5045090;28;20415;-84
2022/10/01 07:46:23;;;;;;;;;;;13.50;99.90;;;;;;5011928;28;19932;-80
2022/10/01 07:48:51;;;;;;;;;;;13.40;99.90;;;;;;4998067;23;20137;-81
2022/10/01 07:51:17;;;;;;;;;;;13.40;99.90;;;;;;4993038;28;19976;-81
2022/10/01 07:53:43;;;;;;;;;;;13.50;99.90;;;;;;4994973;28;19953;-81
2022/10/01 07:56:12;;;;;;;;;;;13.80;99.90;;;;;;5014181;28;20342;-87
2022/10/01 07:58:42;;;;;;;;;;;14.20;99.90;;;;;;4991487;28;19999;-84
2022/10/01 08:01:08;;;;;;;;;;;14.90;99.90;;;;;;5001099;28;20322;-82
2022/10/01 08:03:37;;;;;;;;;;;15.20;99.90;;;;;;5007407;28;20527;-85
2022/10/01 08:06:06;;;;;;;;;;;;;;;;;;5008918;28;19925;-86
2022/10/01 08:08:33;;;;;;;;;;;16.40;99.90;;;;;;4993455;28;19956;-83
2022/10/01 08:10:59;;;;;;;;;;;;;;;;;;4994581;28;19988;-83
2022/10/01 08:16:04;;;;;;;;;;;;;;;;;;5753553;22;20359;-84
2022/10/01 08:18:31;;;;;;;;;;;;;;;;;;5021253;28;19929;-89
2022/10/01 08:20:57;;;;;;;;;;;;;;;;;;5022745;28;19975;-85
2022/10/01 08:23:23;;;;;;;;;;;;;;;;;;5008634;28;19971;-84
2022/10/01 08:25:49;;;;;;;;;;;;;;;;;;5033619;28;19986;-85
2022/10/01 08:28:17;;;;;;;;;;;;;;;;;;5036262;28;20428;-84
2022/10/01 08:30:43;;;;;;;;;;;;;;;;;;5025063;28;19932;-84
2022/10/01 08:33:09;;;;;;;;;;;;;;;;;;5004519;28;20101;-88
2022/10/01 08:35:36;;;;;;;;;;;;;;;;;;5007240;28;19929;-85
2022/10/01 08:38:02;;;;;;;;;;;;;;;;;;5018831;28;19925;-87
2022/10/01 08:40:28;;;;;;;;;;;;;;;;;;5012241;28;19989;-85
2022/10/01 08:42:54;;;;;;;;;;;;;;;;;;5023788;28;19929;-84
2022/10/01 08:45:20;;;;;;;;;;;;;;;;;;5033602;28;19936;-88
2022/10/01 08:47:48;;;;;;;;;;;;;;;;;;5012822;28;19929;-82
2022/10/01 08:50:14;;;;;;;;;;;;;;;;;;5014005;28;19925;-87
2022/10/01 08:52:40;;;;;;;;;;;;;;;;;;5022911;28;19939;-82
2022/10/01 08:55:06;;;;;;;;;;;;;;;;;;5005318;28;19940;-80
2022/10/01 08:57:33;;;;;;;;;;;;;;;;;;5011563;28;19929;-85
2022/10/01 09:00:00;;;;;;;;;;;;;;;;;;5016484;28;20026;-88
2022/10/01 09:02:26;;;;;;;;;;;;;;;;;;5018022;28;19956;-83
2022/10/01 09:04:56;;;;;;;;;;;;;;;;;;5017293;28;19932;-80
2022/10/01 09:07:22;;;;;;;;;;;;;;;;;;5043117;28;19933;-87
2022/10/01 09:09:49;;;;;;;;;;;;;;;;;;5025740;28;19992;-81
2022/10/01 09:12:15;;;;;;;;;;;;;;;;;;5031819;28;19939;-86
2022/10/01 09:14:42;;;;;;;;;;;;;;;;;;5015528;28;19968;-81
2022/10/01 09:17:09;;;;;;;;;;;;;;;;;;5016324;28;20171;-80
2022/10/01 09:19:36;;;;;;;;;;;;;;;;;;5017778;28;20004;-80
2022/10/01 09:22:02;;;;;;;;;;;;;;;;;;5014231;28;19932;-79
2022/10/01 09:24:28;;;;;;;;;;;;;;;;;;5006090;28;20565;-77
2022/10/01 09:26:55;;;;;;;;;;;;;;;;;;5008842;28;19986;-76
2022/10/01 09:29:21;;;;;;;;;;;;;;;;;;5007057;28;19971;-80
2022/10/01 09:31:47;;;;;;;;;;;;;;;;;;5020382;28;20546;-77
2022/10/01 09:34:13;;;;;;;;;;;;;;;;;;5028248;28;19947;-78
2022/10/01 09:36:40;;;;;;;;;;;;;;;;;;5018074;28;19972;-77
2022/10/01 09:39:06;;;;;;;;;;;;;;;;;;5040822;28;20497;-81
2022/10/01 09:41:32;;;;;;;;;;;;;;;;;;5015883;28;20405;-78
2022/10/01 09:43:58;;;;;;;;;;;;;;;;;;5019659;28;20481;-80
2022/10/01 09:46:25;;;;;;;;;;;;;;;;;;5036963;28;19931;-79
2022/10/01 09:49:04;;;;;;;;;;;16.70;99.90;;;;;;5037473;28;19924;-80
2022/10/01 09:51:37;;;;;;;;;;;16.60;99.90;;;;;;5020252;28;19925;-78
2022/10/01 09:54:02;;;;;;;;;;;16.60;99.90;;;;;;5032159;28;19932;-79
2022/10/01 09:56:32;;;;;;;;;;;16.50;99.90;;;;;;5025536;28;19937;-78
2022/10/01 09:59:00;;;;;;;;;;;16.50;99.90;;;;;;5013823;28;19928;-82
2022/10/01 10:01:38;;;;;;;;;;;16.30;99.90;;;;;;5014835;28;19929;-78
2022/10/01 10:04:08;;;;;;;;;;;16.20;99.90;;;;;;5029499;28;19986;-80
2022/10/01 10:06:34;;;;;;;;;;;16.00;99.90;;;;;;5029325;28;19972;-79
2022/10/01 10:09:00;;;;;;;;;;;15.70;99.90;;;;;;5007223;28;19987;-77
2022/10/01 10:11:28;;;;;;;;;;;15.50;99.90;;;;;;5032379;28;20439;-79
2022/10/01 10:13:59;;;;;;;;;;;15.30;99.90;;;;;;5029810;28;20052;-83
2022/10/01 10:16:26;;;;;;;;;;;15.10;99.90;;;;;;5019944;28;19925;-80
2022/10/01 10:18:56;;;;;;;;;;;;;;;;;;5004243;28;19994;-83
2022/10/01 10:21:25;;;;;;;;;;;;;;;;;;5001969;28;19960;-85
2022/10/01 10:23:51;;;;;;;;;;;;;;;;;;5003238;28;19933;-83
2022/10/01 10:26:19;;;;;;;;;;;14.90;99.90;;;;;;5008218;28;19932;-83
2022/10/01 10:28:45;;;;;;;;;;;14.60;99.90;;;;;;4991680;28;19932;-85
2022/10/01 10:31:12;;;;;;;;;;;;;;;;;;4994792;28;19925;-83
2022/10/01 10:33:46;;;;;;;;;;;14.30;99.90;;;;;;5007912;28;19946;-83
2022/10/01 10:36:13;;;;;;;;;;;13.80;99.90;;;;;;4993812;28;19929;-82
2022/10/01 10:38:39;;;;;;;;;;;13.90;99.90;;;;;;5016152;28;19929;-81
2022/10/01 10:41:14;;;;;;;;;;;13.80;99.90;;;;;;5003897;28;19990;-81
2022/10/01 10:43:42;;;;;;;;;;;13.70;99.90;;;;;;5023297;28;19925;-84
2022/10/01 10:46:09;;;;;;;;;;;13.60;99.90;;;;;;5020970;28;19983;-82
2022/10/01 10:48:44;;;;;;;;;;;13.50;99.90;;;;;;5019763;28;20435;-81
2022/10/01 10:51:10;;;;;;;;;;;13.40;99.90;;;;;;4988053;28;19932;-84
2022/10/01 10:53:40;;;;;;;;;;;13.40;99.90;;;;;;4992373;28;19925;-79
2022/10/01 10:56:13;;;;;;;;;;;13.30;99.90;;;;;;4993955;28;20595;-82
2022/10/01 10:58:41;;;;;;;;;;;13.30;99.90;;;;;;5009691;28;20340;-85
2022/10/01 11:01:08;;;;;;;;;;;13.30;99.90;;;;;;4982716;28;20012;-83
2022/10/01 11:03:36;;;;;;;;;;;13.20;99.90;;;;;;4983744;28;20032;-83
2022/10/01 11:06:02;;;;;;;;;;;;;;;;;;5014247;28;20428;-84
2022/10/01 11:08:28;;;;;;;;;;;13.20;99.90;;;;;;4986507;28;19971;-81
2022/10/01 11:11:00;;;;;;;;;;;13.30;99.90;;;;;;4996565;28;19925;-80
2022/10/01 11:13:34;;;;;;;;;;;13.40;99.90;;;;;;5008466;28;20011;-80
2022/10/01 11:16:18;;;;;;;;;;;13.40;99.90;;;;;;5007004;28;19936;-84
2022/10/01 11:19:02;;;;;;;;;;;13.50;99.90;;;;;;5039867;28;19932;-81
2022/10/01 11:21:37;;;;;;;;;;;13.50;99.90;;;;;;5036082;28;19987;-82
2022/10/01 11:24:22;;;;;;;;;;;13.50;99.90;;;;;;5005641;28;20567;-83
2022/10/01 11:26:52;;;;;;;;;;;13.70;99.90;;;;;;5035744;28;19987;-83
2022/10/01 11:29:34;;;;;;;;;;;13.70;99.90;;;;;;5036283;28;19920;-82
2022/10/01 11:32:24;;;;;;;;;;;13.80;99.90;;;;;;5015912;28;19925;-82
2022/10/01 11:34:50;;;;;;;;;;;14.00;99.90;;;;;;5039042;28;19954;-81
2022/10/01 11:37:30;;;;;;;;;;;14.20;99.90;;;;;;5027728;28;19925;-81
2022/10/01 11:39:59;;;;;;;;;;;14.30;99.90;;;;;;5003103;28;20946;-83
2022/10/01 11:42:30;;;;;;;;;;;14.50;99.90;;;;;;5017438;28;19975;-81
2022/10/01 11:45:02;;;;;;;;;;;14.60;99.90;;;;;;5008021;28;19972;-80
2022/10/01 11:47:31;;;;;;;;;;;14.50;99.90;;;;;;5012938;28;19929;-81
2022/10/01 11:49:58;;;;;;;;;;;14.80;99.90;;;;;;5017331;28;20379;-82
2022/10/01 11:52:46;;;;;;;;;;;14.90;99.90;;;;;;5018143;28;20395;-80
2022/10/01 12:01:27;;;;;;;;;;;14.90;99.90;;;;;;5030839;28;19924;-81
2022/10/01 12:03:55;;;;;;;;;;;14.90;99.90;;;;;;5006982;28;20464;-82
2022/10/01 12:06:43;;;;;;;;;;;14.90;99.90;;;;;;5015022;28;19929;-84
2022/10/01 12:09:21;;;;;;;;;;;14.90;99.90;;;;;;5012902;28;20017;-86
2022/10/01 12:11:56;;;;;;;;;;;14.80;99.90;;;;;;5014257;28;19998;-84
2022/10/01 12:14:26;;;;;;;;;;;14.20;99.90;;;;;;5013348;28;19928;-85
2022/10/01 12:16:58;;;;;;;;;;;14.80;99.90;;;;;;5011861;28;20396;-88
2022/10/01 12:19:27;;;;;;;;;;;14.80;99.90;;;;;;5024517;28;20269;-82
2022/10/01 12:22:02;;;;;;;;;;;14.90;99.90;;;;;;5033425;28;19933;-82
2022/10/01 12:24:41;;;;;;;;;;;14.90;99.90;;;;;;5040770;28;19999;-81
2022/10/01 12:27:23;;;;;;;;;;;14.90;99.90;;;;;;5008016;28;19937;-85
2022/10/01 12:30:03;;;;;;;;;;;14.90;99.90;;;;;;5009947;28;19979;-85
2022/10/01 12:32:44;;;;;;;;;;;14.90;99.90;;;;;;5017819;28;19932;-90
2022/10/01 12:35:15;;;;;;;;;;;15.00;99.90;;;;;;5015068;28;20556;-85
2022/10/01 12:37:43;;;;;;;;;;;15.10;99.90;;;;;;5030755;28;19924;-81
2022/10/01 12:40:09;;;;;;;;;;;15.10;99.90;;;;;;5009794;28;20580;-83
2022/10/01 12:42:56;;;;;;;;;;;15.10;99.90;;;;;;5006809;28;20016;-84
2022/10/01 12:45:31;;;;;;;;;;;15.20;99.90;;;;;;5019191;28;19925;-90
2022/10/01 12:48:05;;;;;;;;;;;15.30;99.90;;;;;;5007088;28;20401;-86
2022/10/01 12:50:41;;;;;;;;;;;15.30;99.90;;;;;;5007268;28;19925;-81
2022/10/01 12:53:29;;;;;;;;;;;14.80;99.90;;;;;;5021081;28;19931;-84
2022/10/01 12:56:01;;;;;;;;;;;15.40;99.90;;;;;;5037779;28;19948;-81
2022/10/01 12:58:48;;;;;;;;;;;15.40;99.90;;;;;;4998116;28;20384;-82
2022/10/01 13:01:23;;;;;;;;;;;15.40;99.90;;;;;;5019488;28;19939;-83
2022/10/01 13:04:01;;;;;;;;;;;15.30;99.90;;;;;;5005927;28;19929;-82
2022/10/01 13:06:30;;;;;;;;;;;15.20;99.90;;;;;;5031635;28;20007;-80
2022/10/01 13:08:59;;;;;;;;;;;15.10;99.90;;;;;;5036726;28;19924;-85
2022/10/01 13:11:28;;;;;;;;;;;14.90;99.90;;;;;;5012147;28;19948;-82
2022/10/01 13:13:54;;;;;;;;;;;14.90;99.90;;;;;;5042868;28;19978;-84
2022/10/01 13:16:20;;;;;;;;;;;14.80;99.90;;;;;;5035212;28;19956;-82
2022/10/01 13:18:52;;;;;;;;;;;14.70;99.90;;;;;;5018097;28;19928;-85
2022/10/01 13:21:21;;;;;;;;;;;14.60;99.90;;;;;;5010242;28;20279;-81
2022/10/01 13:23:47;;;;;;;;;;;14.60;99.90;;;;;;5032680;28;20287;-83
2022/10/01 13:26:17;;;;;;;;;;;14.50;99.90;;;;;;5008016;28;20003;-80
2022/10/01 13:28:47;;;;;;;;;;;14.50;99.90;;;;;;5032786;28;20107;-86
2022/10/01 13:31:14;;;;;;;;;;;14.50;99.90;;;;;;5020020;28;19929;-83
2022/10/01 13:33:40;;;;;;;;;;;14.40;99.90;;;;;;5033617;28;19925;-85
2022/10/01 13:36:08;;;;;;;;;;;14.30;99.90;;;;;;5037974;28;19960;-85
2022/10/01 13:38:45;;;;;;;;;;;14.30;99.90;;;;;;5017446;28;20024;-83
2022/10/01 13:41:17;;;;;;;;;;;14.20;99.90;;;;;;5016827;28;19963;-81
2022/10/01 13:44:10;;;;;;;;;;;13.90;99.90;;;;;;5020077;28;19924;-84
2022/10/01 13:46:48;;;;;;;;;;;13.70;99.90;;;;;;4988661;28;19976;-82
2022/10/01 13:49:21;;;;;;;;;;;13.40;99.90;;;;;;5015145;28;19976;-81
2022/10/01 13:51:46;;;;;;;;;;;13.30;99.90;;;;;;5034165;28;19928;-80
2022/10/01 13:54:22;;;;;;;;;;;13.20;99.90;;;;;;5016206;28;19928;-83
2022/10/01 13:56:48;;;;;;;;;;;13.80;99.90;;;;;;5029836;28;19928;-81
2022/10/01 13:59:29;;;;;;;;;;;13.10;99.90;;;;;;5031946;28;20632;-84
2022/10/01 14:01:55;;;;;;;;;;;13.00;99.90;;;;;;5039407;28;19928;-82
2022/10/01 14:04:26;;;;;;;;;;;13.00;99.90;;;;;;5014862;28;19928;-85
2022/10/01 14:06:55;;;;;;;;;;;13.00;99.90;;;;;;5021362;28;19935;-84
2022/10/01 14:09:20;;;;;;;;;;;13.00;99.90;;;;;;5013859;28;19931;-81
2022/10/01 14:17:40;;;;;;;;;;;12.90;99.90;;;;;;5002752;28;19983;-83
2022/10/01 14:20:06;;;;;;;;;;;12.90;99.90;;;;;;5017364;28;20180;-83
2022/10/01 14:22:51;;;;;;;;;;;12.90;99.90;;;;;;5013190;28;19933;-83
2022/10/01 14:25:35;;;;;;;;;;;13.00;99.90;;;;;;5036089;28;19982;-84
2022/10/01 14:28:11;;;;;;;;;;;13.00;99.90;;;;;;5024655;28;19928;-84
2022/10/01 14:30:52;;;;;;;;;;;13.00;99.90;;;;;;5019291;28;20463;-83
2022/10/01 14:33:44;;;;;;;;;;;13.10;99.90;;;;;;5032634;28;20011;-83
2022/10/01 14:36:18;;;;;;;;;;;13.10;99.90;;;;;;5047409;28;19932;-82
2022/10/01 14:38:44;;;;;;;;;;;13.20;99.90;;;;;;5050450;28;20002;-82
2022/10/01 14:41:18;;;;;;;;;;;13.20;99.90;;;;;;5013870;28;20031;-80
2022/10/01 14:43:44;;;;;;;;;;;13.20;99.90;;;;;;5024452;28;19932;-82
2022/10/01 14:46:12;;;;;;;;;;;13.20;99.90;;;;;;5036254;28;20607;-81
2022/10/01 14:48:39;;;;;;;;;;;13.20;99.90;;;;;;5024399;28;20086;-83
2022/10/01 14:51:06;;;;;;;;;;;13.20;99.90;;;;;;5018894;28;19925;-83
2022/10/01 14:53:33;;;;;;;;;;;13.30;99.90;;;;;;5013763;28;19931;-82
2022/10/01 14:56:02;;;;;;;;;;;13.30;99.90;;;;;;5015200;28;19951;-82
2022/10/01 14:58:34;;;;;;;;;;;13.30;99.90;;;;;;5012105;28;20484;-81
2022/10/01 15:01:00;;;;;;;;;;;13.30;99.90;;;;;;5010691;28;19971;-81
2022/10/01 15:03:34;;;;;;;;;;;13.40;99.90;;;;;;5024920;28;19974;-81
2022/10/01 15:06:02;;;;;;;;;;;13.60;99.90;;;;;;5017353;28;19929;-82
2022/10/01 15:08:57;;;;;;;;;;;13.50;99.90;;;;;;5007692;28;19929;-85
2022/10/01 15:11:24;;;;;;;;;;;13.70;99.90;;;;;;4996344;28;19928;-81
2022/10/01 15:13:52;;;;;;;;;;;13.50;99.90;;;;;;5019278;28;19951;-81
2022/10/01 15:16:19;;;;;;;;;;;13.60;99.90;;;;;;5005800;28;19987;-80
2022/10/01 15:18:45;;;;;;;;;;;;;;;;;;5018698;28;20380;-80
2022/10/01 15:21:14;;;;;;;;;;;13.60;99.90;;;;;;5019119;28;19924;-81
2022/10/01 15:23:40;;;;;;;;;;;14.00;99.90;;;;;;5039243;28;19925;-81
2022/10/01 15:26:08;;;;;;;;;;;14.00;99.90;;;;;;5003608;28;19924;-81
2022/10/01 15:28:34;;;;;;;;;;;13.90;99.90;;;;;;5018695;28;19933;-81
2022/10/01 15:31:04;;;;;;;;;;;14.10;99.90;;;;;;5018406;28;20038;-80
2022/10/01 15:33:33;;;;;;;;;;;14.20;99.90;;;;;;5037745;28;19972;-80
2022/10/01 15:35:59;;;;;;;;;;;;;;;;;;5039574;28;19936;-81
2022/10/01 15:38:25;;;;;;;;;;;14.20;99.90;;;;;;5014691;28;19933;-80
2022/10/01 15:40:57;;;;;;;;;;;14.20;99.90;;;;;;5036280;28;19928;-80
2022/10/01 15:43:44;;;;;;;;;;;14.20;99.90;;;;;;5006438;28;19936;-79
2022/10/01 15:46:14;;;;;;;;;;;14.20;99.90;;;;;;5018654;28;20542;-81
2022/10/01 15:48:40;;;;;;;;;;;14.20;99.90;;;;;;5011319;28;20276;-81
2022/10/01 15:51:26;;;;;;;;;;;14.20;99.90;;;;;;5033264;28;19943;-85
2022/10/01 15:53:52;;;;;;;;;;;14.20;99.90;;;;;;5038608;28;19924;-83
2022/10/01 15:56:20;;;;;;;;;;;14.20;99.90;;;;;;5004040;28;19981;-85
2022/10/01 15:58:54;;;;;;;;;;;14.20;99.90;;;;;;5025032;28;19924;-93
2022/10/01 16:01:23;;;;;;;;;;;14.20;99.90;;;;;;5017610;28;19959;-83
2022/10/01 16:03:53;;;;;;;;;;;14.10;99.90;;;;;;5034230;28;19928;-85
2022/10/01 16:06:36;;;;;;;;;;;14.10;99.90;;;;;;5039012;28;19928;-86
2022/10/01 16:09:02;;;;;;;;;;;14.10;99.90;;;;;;5033758;28;20395;-83
2022/10/01 16:11:31;;;;;;;;;;;14.00;99.90;;;;;;5026635;28;19971;-82
2022/10/01 16:14:19;;;;;;;;;;;14.00;99.90;;;;;;5030801;28;19999;-84
2022/10/01 16:16:44;;;;;;;;;;;14.00;99.90;;;;;;4997084;28;19925;-81
2022/10/01 16:19:22;;;;;;;;;;;14.00;99.90;;;;;;4975120;28;19932;-83
2022/10/01 16:22:07;;;;;;;;;;;14.00;99.90;;;;;;4982079;28;19929;-81
2022/10/01 16:24:40;;;;;;;;;;;13.90;99.90;;;;;;5000842;28;19933;-83
2022/10/01 16:27:27;;;;;;;;;;;13.90;99.90;;;;;;5017242;28;19921;-85
2022/10/01 16:29:58;;;;;;;;;;;13.90;99.90;;;;;;5024873;28;19988;-81
2022/10/01 16:32:23;;;;;;;;;;;13.80;99.90;;;;;;5020351;28;20414;-80
2022/10/01 16:34:49;;;;;;;;;;;13.80;99.90;;;;;;5026953;28;19933;-89